sensor_id;sensor_type;location;lat;lon;timestamp;temperature;humidity
360;DHT22;168;48.872;9.226;2023-03-21T00:00:15;11.90;90.10
360;DHT22;168;48.872;9.226;2023-03-21T00:02:42;12.00;91.90
360;DHT22;168;48.872;9.226;2023-03-21T00:05:10;12.00;92.10
360;DHT22;168;48.872;9.226;2023-03-21T00:07:37;12.10;92.30
360;DHT22;168;48.872;9.226;2023-03-21T00:10:05;12.10;92.00
360;DHT22;168;48.872;9.226;2023-03-21T00:12:34;12.10;91.80
360;DHT22;168;48.872;9.226;2023-03-21T00:15:03;12.10;91.90
360;DHT22;168;48.872;9.226;2023-03-21T00:17:32;12.00;91.80
360;DHT22;168;48.872;9.226;2023-03-21T00:20:00;12.00;91.40
360;DHT22;168;48.872;9.226;2023-03-21T00:22:30;12.00;91.30
360;DHT22;168;48.872;9.226;2023-03-21T00:25:00;12.10;90.70
360;DHT22;168;48.872;9.226;2023-03-21T00:27:27;12.10;90.60
360;DHT22;168;48.872;9.226;2023-03-21T00:29:56;12.10;90.40
360;DHT22;168;48.872;9.226;2023-03-21T00:32:24;12.20;90.00
360;DHT22;168;48.872;9.226;2023-03-21T00:34:51;12.10;90.30
360;DHT22;168;48.872;9.226;2023-03-21T00:37:19;12.20;90.60
360;DHT22;168;48.872;9.226;2023-03-21T00:39:47;12.20;90.80
360;DHT22;168;48.872;9.226;2023-03-21T00:42:15;12.20;90.80
360;DHT22;168;48.872;9.226;2023-03-21T00:44:42;12.20;90.40
360;DHT22;168;48.872;9.226;2023-03-21T00:47:12;12.20;90.10
360;DHT22;168;48.872;9.226;2023-03-21T00:49:39;12.20;90.20
360;DHT22;168;48.872;9.226;2023-03-21T00:52:08;12.20;90.30
360;DHT22;168;48.872;9.226;2023-03-21T00:54:36;12.20;90.20
360;DHT22;168;48.872;9.226;2023-03-21T00:57:04;12.20;90.10
360;DHT22;168;48.872;9.226;2023-03-21T00:59:32;12.20;90.30
360;DHT22;168;48.872;9.226;2023-03-21T01:02:00;12.30;90.40
360;DHT22;168;48.872;9.226;2023-03-21T01:04:28;12.30;90.40
360;DHT22;168;48.872;9.226;2023-03-21T01:06:57;12.20;90.70
360;DHT22;168;48.872;9.226;2023-03-21T01:09:27;12.20;91.30
360;DHT22;168;48.872;9.226;2023-03-21T01:11:54;12.20;91.80
360;DHT22;168;48.872;9.226;2023-03-21T01:14:22;12.20;91.90
360;DHT22;168;48.872;9.226;2023-03-21T01:16:51;12.10;92.20
360;DHT22;168;48.872;9.226;2023-03-21T01:19:21;12.10;92.90
360;DHT22;168;48.872;9.226;2023-03-21T01:21:52;12.10;93.60
360;DHT22;168;48.872;9.226;2023-03-21T01:24:20;12.10;93.90
360;DHT22;168;48.872;9.226;2023-03-21T01:26:47;12.00;94.10
360;DHT22;168;48.872;9.226;2023-03-21T01:29:15;12.00;94.10
360;DHT22;168;48.872;9.226;2023-03-21T01:31:42;12.00;94.10
360;DHT22;168;48.872;9.226;2023-03-21T01:34:10;12.00;94.00
360;DHT22;168;48.872;9.226;2023-03-21T01:36:37;12.00;94.00
360;DHT22;168;48.872;9.226;2023-03-21T01:39:06;12.00;93.90
360;DHT22;168;48.872;9.226;2023-03-21T01:41:35;12.00;93.90
360;DHT22;168;48.872;9.226;2023-03-21T01:44:04;11.90;93.80
360;DHT22;168;48.872;9.226;2023-03-21T01:46:35;11.90;93.70
360;DHT22;168;48.872;9.226;2023-03-21T01:49:08;11.90;93.80
360;DHT22;168;48.872;9.226;2023-03-21T01:51:39;11.90;93.80
360;DHT22;168;48.872;9.226;2023-03-21T01:54:12;11.80;93.80
360;DHT22;168;48.872;9.226;2023-03-21T01:56:43;11.80;93.90
360;DHT22;168;48.872;9.226;2023-03-21T01:59:16;11.80;93.90
360;DHT22;168;48.872;9.226;2023-03-21T02:01:48;11.80;94.20
360;DHT22;168;48.872;9.226;2023-03-21T02:04:17;11.70;94.20
360;DHT22;168;48.872;9.226;2023-03-21T02:06:57;11.70;94.30
360;DHT22;168;48.872;9.226;2023-03-21T02:09:31;11.70;94.40
360;DHT22;168;48.872;9.226;2023-03-21T02:11:59;11.70;94.50
360;DHT22;168;48.872;9.226;2023-03-21T02:14:27;11.70;94.60
360;DHT22;168;48.872;9.226;2023-03-21T02:17:02;11.70;94.60
360;DHT22;168;48.872;9.226;2023-03-21T02:23:15;11.70;94.50
360;DHT22;168;48.872;9.226;2023-03-21T02:28:54;11.60;94.60
360;DHT22;168;48.872;9.226;2023-03-21T02:31:35;11.60;94.70
360;DHT22;168;48.872;9.226;2023-03-21T02:34:30;11.60;94.60
360;DHT22;168;48.872;9.226;2023-03-21T02:37:11;11.60;94.70
360;DHT22;168;48.872;9.226;2023-03-21T02:39:54;11.60;94.80
360;DHT22;168;48.872;9.226;2023-03-21T02:42:27;11.60;94.90
360;DHT22;168;48.872;9.226;2023-03-21T02:45:00;11.50;95.00
360;DHT22;168;48.872;9.226;2023-03-21T02:47:31;11.50;95.00
360;DHT22;168;48.872;9.226;2023-03-21T02:50:06;11.50;95.10
360;DHT22;168;48.872;9.226;2023-03-21T02:52:37;11.50;95.20
360;DHT22;168;48.872;9.226;2023-03-21T02:55:10;11.40;95.20
360;DHT22;168;48.872;9.226;2023-03-21T02:57:40;11.40;95.20
360;DHT22;168;48.872;9.226;2023-03-21T03:00:10;11.40;95.20
360;DHT22;168;48.872;9.226;2023-03-21T03:02:39;11.40;95.30
360;DHT22;168;48.872;9.226;2023-03-21T03:05:15;11.40;95.30
360;DHT22;168;48.872;9.226;2023-03-21T03:08:03;11.40;95.30
360;DHT22;168;48.872;9.226;2023-03-21T03:10:52;11.40;95.40
360;DHT22;168;48.872;9.226;2023-03-21T03:13:34;11.40;95.40
360;DHT22;168;48.872;9.226;2023-03-21T03:16:10;11.40;95.40
360;DHT22;168;48.872;9.226;2023-03-21T03:18:47;11.30;95.40
360;DHT22;168;48.872;9.226;2023-03-21T03:21:19;11.30;95.40
360;DHT22;168;48.872;9.226;2023-03-21T03:23:52;11.30;95.40
360;DHT22;168;48.872;9.226;2023-03-21T03:26:24;11.30;95.40
360;DHT22;168;48.872;9.226;2023-03-21T03:28:54;11.30;95.40
360;DHT22;168;48.872;9.226;2023-03-21T03:31:27;11.30;95.40
360;DHT22;168;48.872;9.226;2023-03-21T03:33:58;11.30;95.40
360;DHT22;168;48.872;9.226;2023-03-21T03:36:30;11.30;95.50
360;DHT22;168;48.872;9.226;2023-03-21T03:39:04;11.30;95.50
360;DHT22;168;48.872;9.226;2023-03-21T03:41:39;11.30;95.50
360;DHT22;168;48.872;9.226;2023-03-21T03:44:07;11.20;95.50
360;DHT22;168;48.872;9.226;2023-03-21T03:46:39;11.20;95.50
360;DHT22;168;48.872;9.226;2023-03-21T03:49:13;11.20;95.60
360;DHT22;168;48.872;9.226;2023-03-21T03:51:49;11.20;95.60
360;DHT22;168;48.872;9.226;2023-03-21T03:54:23;11.10;95.70
360;DHT22;168;48.872;9.226;2023-03-21T03:56:53;11.10;95.70
360;DHT22;168;48.872;9.226;2023-03-21T03:59:21;11.10;95.70
360;DHT22;168;48.872;9.226;2023-03-21T04:01:50;11.10;95.70
360;DHT22;168;48.872;9.226;2023-03-21T04:04:17;11.10;95.70
360;DHT22;168;48.872;9.226;2023-03-21T04:06:47;11.10;95.80
360;DHT22;168;48.872;9.226;2023-03-21T04:09:19;11.10;95.80
360;DHT22;168;48.872;9.226;2023-03-21T04:11:47;11.10;95.70
360;DHT22;168;48.872;9.226;2023-03-21T04:14:14;11.10;95.70
360;DHT22;168;48.872;9.226;2023-03-21T04:16:42;11.10;95.70
360;DHT22;168;48.872;9.226;2023-03-21T04:19:09;11.10;95.60
360;DHT22;168;48.872;9.226;2023-03-21T04:21:37;11.10;95.60
360;DHT22;168;48.872;9.226;2023-03-21T04:24:04;11.10;95.60
360;DHT22;168;48.872;9.226;2023-03-21T04:26:34;11.10;95.60
360;DHT22;168;48.872;9.226;2023-03-21T04:29:02;11.10;95.60
360;DHT22;168;48.872;9.226;2023-03-21T04:31:30;11.00;95.60
360;DHT22;168;48.872;9.226;2023-03-21T04:33:59;11.00;95.60
360;DHT22;168;48.872;9.226;2023-03-21T04:36:27;11.00;95.60
360;DHT22;168;48.872;9.226;2023-03-21T04:38:58;11.00;95.70
360;DHT22;168;48.872;9.226;2023-03-21T04:41:26;10.90;95.80
360;DHT22;168;48.872;9.226;2023-03-21T04:43:55;10.90;95.70
360;DHT22;168;48.872;9.226;2023-03-21T04:46:23;10.90;95.80
360;DHT22;168;48.872;9.226;2023-03-21T04:48:50;10.80;95.80
360;DHT22;168;48.872;9.226;2023-03-21T04:51:18;10.80;95.80
360;DHT22;168;48.872;9.226;2023-03-21T04:53:45;10.70;95.90
360;DHT22;168;48.872;9.226;2023-03-21T04:56:14;10.70;95.90
360;DHT22;168;48.872;9.226;2023-03-21T04:58:41;10.70;96.00
360;DHT22;168;48.872;9.226;2023-03-21T05:01:10;10.70;96.00
360;DHT22;168;48.872;9.226;2023-03-21T05:03:39;10.60;95.90
360;DHT22;168;48.872;9.226;2023-03-21T05:06:07;10.60;96.00
360;DHT22;168;48.872;9.226;2023-03-21T05:08:35;10.60;96.00
360;DHT22;168;48.872;9.226;2023-03-21T05:11:03;10.60;96.00
360;DHT22;168;48.872;9.226;2023-03-21T05:13:31;10.60;96.00
360;DHT22;168;48.872;9.226;2023-03-21T05:15:58;10.60;96.00
360;DHT22;168;48.872;9.226;2023-03-21T05:18:27;10.60;95.90
360;DHT22;168;48.872;9.226;2023-03-21T05:20:56;10.60;96.00
360;DHT22;168;48.872;9.226;2023-03-21T05:23:23;10.60;96.00
360;DHT22;168;48.872;9.226;2023-03-21T05:25:51;10.60;96.00
360;DHT22;168;48.872;9.226;2023-03-21T05:28:23;10.60;96.00
360;DHT22;168;48.872;9.226;2023-03-21T05:30:56;10.50;96.00
360;DHT22;168;48.872;9.226;2023-03-21T05:33:23;10.50;96.00
360;DHT22;168;48.872;9.226;2023-03-21T05:35:52;10.50;96.00
360;DHT22;168;48.872;9.226;2023-03-21T05:38:20;10.60;96.00
360;DHT22;168;48.872;9.226;2023-03-21T05:40:48;10.60;96.00
360;DHT22;168;48.872;9.226;2023-03-21T05:43:15;10.60;96.00
360;DHT22;168;48.872;9.226;2023-03-21T05:45:43;10.50;96.00
360;DHT22;168;48.872;9.226;2023-03-21T05:48:10;10.50;96.00
360;DHT22;168;48.872;9.226;2023-03-21T05:50:38;10.50;96.00
360;DHT22;168;48.872;9.226;2023-03-21T05:53:07;10.60;96.10
360;DHT22;168;48.872;9.226;2023-03-21T05:55:34;10.60;96.00
360;DHT22;168;48.872;9.226;2023-03-21T05:58:01;10.60;96.00
360;DHT22;168;48.872;9.226;2023-03-21T06:00:29;10.60;96.00
360;DHT22;168;48.872;9.226;2023-03-21T06:02:57;10.60;96.00
360;DHT22;168;48.872;9.226;2023-03-21T06:05:24;10.70;96.00
360;DHT22;168;48.872;9.226;2023-03-21T06:07:52;10.80;96.10
360;DHT22;168;48.872;9.226;2023-03-21T06:10:20;10.90;96.00
360;DHT22;168;48.872;9.226;2023-03-21T06:12:48;10.90;96.00
360;DHT22;168;48.872;9.226;2023-03-21T06:15:15;11.00;95.80
360;DHT22;168;48.872;9.226;2023-03-21T06:17:42;11.00;95.80
360;DHT22;168;48.872;9.226;2023-03-21T06:20:10;11.10;95.80
360;DHT22;168;48.872;9.226;2023-03-21T06:22:38;11.10;95.80
360;DHT22;168;48.872;9.226;2023-03-21T06:25:07;11.10;95.80
360;DHT22;168;48.872;9.226;2023-03-21T06:27:36;11.10;95.90
360;DHT22;168;48.872;9.226;2023-03-21T06:30:04;11.10;95.90
360;DHT22;168;48.872;9.226;2023-03-21T06:32:32;11.10;95.80
360;DHT22;168;48.872;9.226;2023-03-21T06:34:59;11.10;95.80
360;DHT22;168;48.872;9.226;2023-03-21T06:37:27;11.10;95.80
360;DHT22;168;48.872;9.226;2023-03-21T06:39:54;11.20;95.80
360;DHT22;168;48.872;9.226;2023-03-21T06:42:21;11.20;95.80
360;DHT22;168;48.872;9.226;2023-03-21T06:44:50;11.20;95.80
360;DHT22;168;48.872;9.226;2023-03-21T06:47:18;11.20;95.80
360;DHT22;168;48.872;9.226;2023-03-21T06:49:45;11.20;95.70
360;DHT22;168;48.872;9.226;2023-03-21T06:52:12;11.20;95.80
360;DHT22;168;48.872;9.226;2023-03-21T06:54:40;11.20;95.70
360;DHT22;168;48.872;9.226;2023-03-21T06:57:07;11.30;95.70
360;DHT22;168;48.872;9.226;2023-03-21T06:59:35;11.30;95.60
360;DHT22;168;48.872;9.226;2023-03-21T07:02:05;11.40;95.60
360;DHT22;168;48.872;9.226;2023-03-21T07:04:33;11.40;95.50
360;DHT22;168;48.872;9.226;2023-03-21T07:07:00;11.40;95.40
360;DHT22;168;48.872;9.226;2023-03-21T07:09:27;11.50;95.40
360;DHT22;168;48.872;9.226;2023-03-21T07:11:55;11.50;95.50
360;DHT22;168;48.872;9.226;2023-03-21T07:14:23;11.40;95.60
360;DHT22;168;48.872;9.226;2023-03-21T07:16:50;11.50;95.60
360;DHT22;168;48.872;9.226;2023-03-21T07:19:19;11.50;95.70
360;DHT22;168;48.872;9.226;2023-03-21T07:21:46;11.60;95.60
360;DHT22;168;48.872;9.226;2023-03-21T07:24:14;11.70;95.50
360;DHT22;168;48.872;9.226;2023-03-21T07:26:41;11.80;95.40
360;DHT22;168;48.872;9.226;2023-03-21T07:29:08;11.90;95.30
360;DHT22;168;48.872;9.226;2023-03-21T07:31:36;12.00;95.20
360;DHT22;168;48.872;9.226;2023-03-21T07:34:04;12.10;95.00
360;DHT22;168;48.872;9.226;2023-03-21T07:36:33;12.20;94.80
360;DHT22;168;48.872;9.226;2023-03-21T07:39:02;12.20;94.50
360;DHT22;168;48.872;9.226;2023-03-21T07:41:30;12.30;94.20
360;DHT22;168;48.872;9.226;2023-03-21T07:43:57;12.40;94.00
360;DHT22;168;48.872;9.226;2023-03-21T07:46:24;12.50;93.90
360;DHT22;168;48.872;9.226;2023-03-21T07:48:52;12.60;93.50
360;DHT22;168;48.872;9.226;2023-03-21T07:51:19;12.80;93.10
360;DHT22;168;48.872;9.226;2023-03-21T07:53:48;12.90;92.30
360;DHT22;168;48.872;9.226;2023-03-21T07:56:15;13.00;91.70
360;DHT22;168;48.872;9.226;2023-03-21T07:58:43;13.10;91.20
360;DHT22;168;48.872;9.226;2023-03-21T08:01:10;13.20;90.90
360;DHT22;168;48.872;9.226;2023-03-21T08:03:37;13.30;89.90
360;DHT22;168;48.872;9.226;2023-03-21T08:06:05;13.30;90.00
360;DHT22;168;48.872;9.226;2023-03-21T08:08:33;13.40;90.30
360;DHT22;168;48.872;9.226;2023-03-21T08:11:03;13.40;89.90
360;DHT22;168;48.872;9.226;2023-03-21T08:13:30;13.50;89.80
360;DHT22;168;48.872;9.226;2023-03-21T08:15:58;13.60;89.20
360;DHT22;168;48.872;9.226;2023-03-21T08:18:25;13.70;89.10
360;DHT22;168;48.872;9.226;2023-03-21T08:20:53;13.80;88.60
360;DHT22;168;48.872;9.226;2023-03-21T08:23:21;13.80;88.30
360;DHT22;168;48.872;9.226;2023-03-21T08:25:50;13.90;87.10
360;DHT22;168;48.872;9.226;2023-03-21T08:28:20;14.00;86.60
360;DHT22;168;48.872;9.226;2023-03-21T08:30:48;14.10;86.40
360;DHT22;168;48.872;9.226;2023-03-21T08:33:15;14.20;85.70
360;DHT22;168;48.872;9.226;2023-03-21T08:35:44;14.20;85.10
360;DHT22;168;48.872;9.226;2023-03-21T08:38:11;14.20;84.70
360;DHT22;168;48.872;9.226;2023-03-21T08:40:39;14.40;83.50
360;DHT22;168;48.872;9.226;2023-03-21T08:43:06;14.40;83.80
360;DHT22;168;48.872;9.226;2023-03-21T08:45:35;14.50;83.40
360;DHT22;168;48.872;9.226;2023-03-21T08:48:02;14.60;82.60
360;DHT22;168;48.872;9.226;2023-03-21T08:50:29;14.70;82.40
360;DHT22;168;48.872;9.226;2023-03-21T08:52:57;14.80;82.30
360;DHT22;168;48.872;9.226;2023-03-21T08:55:24;15.00;81.90
360;DHT22;168;48.872;9.226;2023-03-21T08:57:52;15.10;81.00
360;DHT22;168;48.872;9.226;2023-03-21T09:00:19;15.30;79.20
360;DHT22;168;48.872;9.226;2023-03-21T09:02:49;15.40;79.80
360;DHT22;168;48.872;9.226;2023-03-21T09:05:20;15.60;79.60
360;DHT22;168;48.872;9.226;2023-03-21T09:07:48;15.70;77.20
360;DHT22;168;48.872;9.226;2023-03-21T09:10:17;15.80;76.30
360;DHT22;168;48.872;9.226;2023-03-21T09:12:44;16.00;75.70
360;DHT22;168;48.872;9.226;2023-03-21T09:15:12;16.10;75.60
360;DHT22;168;48.872;9.226;2023-03-21T09:17:40;16.20;75.00
360;DHT22;168;48.872;9.226;2023-03-21T09:20:12;16.30;73.20
360;DHT22;168;48.872;9.226;2023-03-21T09:22:44;16.40;73.70
360;DHT22;168;48.872;9.226;2023-03-21T09:25:12;16.50;73.50
360;DHT22;168;48.872;9.226;2023-03-21T09:27:40;16.60;73.00
360;DHT22;168;48.872;9.226;2023-03-21T09:30:11;16.80;71.20
360;DHT22;168;48.872;9.226;2023-03-21T09:32:40;16.90;69.90
360;DHT22;168;48.872;9.226;2023-03-21T09:35:09;17.00;68.80
360;DHT22;168;48.872;9.226;2023-03-21T09:37:37;17.00;68.50
360;DHT22;168;48.872;9.226;2023-03-21T09:40:15;17.00;67.60
360;DHT22;168;48.872;9.226;2023-03-21T09:42:54;17.10;66.90
360;DHT22;168;48.872;9.226;2023-03-21T09:45:31;17.20;66.50
360;DHT22;168;48.872;9.226;2023-03-21T09:48:01;17.20;67.50
360;DHT22;168;48.872;9.226;2023-03-21T09:50:34;17.20;66.30
360;DHT22;168;48.872;9.226;2023-03-21T09:53:08;17.20;68.00
360;DHT22;168;48.872;9.226;2023-03-21T09:55:38;17.30;67.00
360;DHT22;168;48.872;9.226;2023-03-21T09:58:15;17.40;65.70
360;DHT22;168;48.872;9.226;2023-03-21T10:00:49;17.50;66.40
360;DHT22;168;48.872;9.226;2023-03-21T10:03:24;17.70;65.60
360;DHT22;168;48.872;9.226;2023-03-21T10:05:55;17.90;66.40
360;DHT22;168;48.872;9.226;2023-03-21T10:08:26;18.00;66.10
360;DHT22;168;48.872;9.226;2023-03-21T10:10:59;18.20;66.20
360;DHT22;168;48.872;9.226;2023-03-21T10:13:31;18.30;65.10
360;DHT22;168;48.872;9.226;2023-03-21T10:16:01;18.50;63.90
360;DHT22;168;48.872;9.226;2023-03-21T10:18:30;18.60;63.80
360;DHT22;168;48.872;9.226;2023-03-21T10:21:01;18.80;63.00
360;DHT22;168;48.872;9.226;2023-03-21T10:23:30;18.90;62.60
360;DHT22;168;48.872;9.226;2023-03-21T10:25:59;19.00;61.20
360;DHT22;168;48.872;9.226;2023-03-21T10:28:30;19.10;60.60
360;DHT22;168;48.872;9.226;2023-03-21T10:31:00;18.90;60.70
360;DHT22;168;48.872;9.226;2023-03-21T10:33:34;19.00;60.70
360;DHT22;168;48.872;9.226;2023-03-21T10:36:07;18.90;60.70
360;DHT22;168;48.872;9.226;2023-03-21T10:38:38;18.70;60.60
360;DHT22;168;48.872;9.226;2023-03-21T10:41:09;18.60;61.00
360;DHT22;168;48.872;9.226;2023-03-21T10:43:37;18.70;61.00
360;DHT22;168;48.872;9.226;2023-03-21T10:46:12;18.80;60.50
360;DHT22;168;48.872;9.226;2023-03-21T10:48:41;18.90;60.40
360;DHT22;168;48.872;9.226;2023-03-21T10:51:16;19.00;60.40
360;DHT22;168;48.872;9.226;2023-03-21T10:53:45;18.70;60.30
360;DHT22;168;48.872;9.226;2023-03-21T10:56:16;18.40;61.50
360;DHT22;168;48.872;9.226;2023-03-21T10:58:45;18.10;62.20
360;DHT22;168;48.872;9.226;2023-03-21T11:01:20;18.00;62.80
360;DHT22;168;48.872;9.226;2023-03-21T11:03:55;18.10;62.00
360;DHT22;168;48.872;9.226;2023-03-21T11:06:28;18.30;61.60
360;DHT22;168;48.872;9.226;2023-03-21T11:09:00;18.40;61.70
360;DHT22;168;48.872;9.226;2023-03-21T11:11:34;18.40;61.60
360;DHT22;168;48.872;9.226;2023-03-21T11:14:04;18.30;61.10
360;DHT22;168;48.872;9.226;2023-03-21T11:16:37;18.30;61.10
360;DHT22;168;48.872;9.226;2023-03-21T11:19:13;18.30;60.80
360;DHT22;168;48.872;9.226;2023-03-21T11:21:42;18.40;61.40
360;DHT22;168;48.872;9.226;2023-03-21T11:24:13;18.70;60.50
360;DHT22;168;48.872;9.226;2023-03-21T11:26:42;18.90;60.50
360;DHT22;168;48.872;9.226;2023-03-21T11:29:22;19.00;61.00
360;DHT22;168;48.872;9.226;2023-03-21T11:31:50;19.20;61.50
360;DHT22;168;48.872;9.226;2023-03-21T11:34:25;19.40;61.40
360;DHT22;168;48.872;9.226;2023-03-21T11:36:58;19.70;59.00
360;DHT22;168;48.872;9.226;2023-03-21T11:39:36;19.50;59.10
360;DHT22;168;48.872;9.226;2023-03-21T11:42:25;19.30;59.30
360;DHT22;168;48.872;9.226;2023-03-21T11:45:01;19.20;59.40
360;DHT22;168;48.872;9.226;2023-03-21T11:47:29;19.20;59.30
360;DHT22;168;48.872;9.226;2023-03-21T11:49:57;19.30;60.10
360;DHT22;168;48.872;9.226;2023-03-21T11:52:33;19.40;59.40
360;DHT22;168;48.872;9.226;2023-03-21T11:55:14;19.40;58.70
360;DHT22;168;48.872;9.226;2023-03-21T11:57:49;19.30;58.90
360;DHT22;168;48.872;9.226;2023-03-21T12:00:25;19.20;59.20
360;DHT22;168;48.872;9.226;2023-03-21T12:03:33;19.20;61.00
360;DHT22;168;48.872;9.226;2023-03-21T12:06:12;19.30;60.00
360;DHT22;168;48.872;9.226;2023-03-21T12:08:52;19.40;59.80
360;DHT22;168;48.872;9.226;2023-03-21T12:11:27;19.50;59.50
360;DHT22;168;48.872;9.226;2023-03-21T12:14:02;19.30;59.60
360;DHT22;168;48.872;9.226;2023-03-21T12:16:52;19.10;60.00
360;DHT22;168;48.872;9.226;2023-03-21T12:19:52;19.00;60.20
360;DHT22;168;48.872;9.226;2023-03-21T12:22:27;19.00;59.50
360;DHT22;168;48.872;9.226;2023-03-21T12:25:04;19.00;59.10
360;DHT22;168;48.872;9.226;2023-03-21T12:27:41;18.90;59.00
360;DHT22;168;48.872;9.226;2023-03-21T12:30:57;18.90;59.10
360;DHT22;168;48.872;9.226;2023-03-21T12:34:05;18.90;58.90
360;DHT22;168;48.872;9.226;2023-03-21T12:36:46;19.00;58.70
360;DHT22;168;48.872;9.226;2023-03-21T12:39:25;19.10;58.50
360;DHT22;168;48.872;9.226;2023-03-21T12:42:05;19.20;59.30
360;DHT22;168;48.872;9.226;2023-03-21T12:44:38;19.30;61.10
360;DHT22;168;48.872;9.226;2023-03-21T12:47:12;19.30;61.60
360;DHT22;168;48.872;9.226;2023-03-21T12:49:47;19.20;60.90
360;DHT22;168;48.872;9.226;2023-03-21T12:52:21;19.30;61.30
360;DHT22;168;48.872;9.226;2023-03-21T12:54:53;19.20;61.10
360;DHT22;168;48.872;9.226;2023-03-21T12:57:26;19.00;62.40
360;DHT22;168;48.872;9.226;2023-03-21T12:59:59;18.80;62.90
360;DHT22;168;48.872;9.226;2023-03-21T13:02:30;18.70;63.30
360;DHT22;168;48.872;9.226;2023-03-21T13:05:04;18.90;62.30
360;DHT22;168;48.872;9.226;2023-03-21T13:07:36;19.00;61.30
360;DHT22;168;48.872;9.226;2023-03-21T13:10:13;19.10;61.20
360;DHT22;168;48.872;9.226;2023-03-21T13:12:47;19.10;60.80
360;DHT22;168;48.872;9.226;2023-03-21T13:15:31;19.00;61.00
360;DHT22;168;48.872;9.226;2023-03-21T13:18:12;19.00;60.90
360;DHT22;168;48.872;9.226;2023-03-21T13:20:45;19.10;59.90
360;DHT22;168;48.872;9.226;2023-03-21T13:23:14;19.00;60.50
360;DHT22;168;48.872;9.226;2023-03-21T13:25:46;18.90;61.60
360;DHT22;168;48.872;9.226;2023-03-21T13:28:19;19.00;60.70
360;DHT22;168;48.872;9.226;2023-03-21T13:30:48;19.00;61.00
360;DHT22;168;48.872;9.226;2023-03-21T13:33:20;19.20;60.50
360;DHT22;168;48.872;9.226;2023-03-21T13:35:56;19.20;59.70
360;DHT22;168;48.872;9.226;2023-03-21T13:38:27;19.20;59.50
360;DHT22;168;48.872;9.226;2023-03-21T13:40:57;19.10;60.10
360;DHT22;168;48.872;9.226;2023-03-21T13:43:42;18.90;59.80
360;DHT22;168;48.872;9.226;2023-03-21T13:46:12;18.60;60.60
360;DHT22;168;48.872;9.226;2023-03-21T13:48:53;18.50;61.20
360;DHT22;168;48.872;9.226;2023-03-21T13:51:43;18.40;61.40
360;DHT22;168;48.872;9.226;2023-03-21T13:54:42;18.40;61.00
360;DHT22;168;48.872;9.226;2023-03-21T13:57:21;18.30;61.80
360;DHT22;168;48.872;9.226;2023-03-21T14:00:20;18.20;61.60
360;DHT22;168;48.872;9.226;2023-03-21T14:02:52;18.00;61.40
360;DHT22;168;48.872;9.226;2023-03-21T14:05:22;18.10;61.40
360;DHT22;168;48.872;9.226;2023-03-21T14:07:55;18.10;61.30
360;DHT22;168;48.872;9.226;2023-03-21T14:10:27;18.10;61.50
360;DHT22;168;48.872;9.226;2023-03-21T14:12:59;18.20;61.40
360;DHT22;168;48.872;9.226;2023-03-21T14:15:46;18.20;61.30
360;DHT22;168;48.872;9.226;2023-03-21T14:18:16;18.10;61.50
360;DHT22;168;48.872;9.226;2023-03-21T14:20:50;18.30;61.60
360;DHT22;168;48.872;9.226;2023-03-21T14:23:18;18.30;61.40
360;DHT22;168;48.872;9.226;2023-03-21T14:25:46;18.40;60.70
360;DHT22;168;48.872;9.226;2023-03-21T14:28:17;18.50;60.50
360;DHT22;168;48.872;9.226;2023-03-21T14:30:51;18.60;60.20
360;DHT22;168;48.872;9.226;2023-03-21T14:33:24;18.60;60.00
360;DHT22;168;48.872;9.226;2023-03-21T14:35:57;18.60;60.90
360;DHT22;168;48.872;9.226;2023-03-21T14:38:33;18.70;61.00
360;DHT22;168;48.872;9.226;2023-03-21T14:41:02;18.80;60.40
360;DHT22;168;48.872;9.226;2023-03-21T14:43:30;18.90;59.70
360;DHT22;168;48.872;9.226;2023-03-21T14:46:01;18.80;59.40
360;DHT22;168;48.872;9.226;2023-03-21T14:48:30;18.80;59.90
360;DHT22;168;48.872;9.226;2023-03-21T14:51:01;18.90;59.70
360;DHT22;168;48.872;9.226;2023-03-21T14:53:31;18.80;59.90
360;DHT22;168;48.872;9.226;2023-03-21T14:56:05;18.50;61.30
360;DHT22;168;48.872;9.226;2023-03-21T14:58:37;18.20;62.80
360;DHT22;168;48.872;9.226;2023-03-21T15:01:13;17.90;63.80
360;DHT22;168;48.872;9.226;2023-03-21T15:03:43;17.40;64.90
360;DHT22;168;48.872;9.226;2023-03-21T15:06:12;17.10;66.90
360;DHT22;168;48.872;9.226;2023-03-21T15:08:53;17.00;67.20
360;DHT22;168;48.872;9.226;2023-03-21T15:11:28;16.80;68.30
360;DHT22;168;48.872;9.226;2023-03-21T15:13:59;16.70;69.00
360;DHT22;168;48.872;9.226;2023-03-21T15:16:29;16.50;69.30
360;DHT22;168;48.872;9.226;2023-03-21T15:18:58;16.50;69.40
360;DHT22;168;48.872;9.226;2023-03-21T15:21:29;16.60;69.10
360;DHT22;168;48.872;9.226;2023-03-21T15:24:02;16.50;69.10
360;DHT22;168;48.872;9.226;2023-03-21T15:26:33;16.40;69.90
360;DHT22;168;48.872;9.226;2023-03-21T15:29:01;16.40;69.50
360;DHT22;168;48.872;9.226;2023-03-21T15:31:37;16.40;69.70
360;DHT22;168;48.872;9.226;2023-03-21T15:34:05;16.40;69.40
360;DHT22;168;48.872;9.226;2023-03-21T15:36:35;16.50;69.20
360;DHT22;168;48.872;9.226;2023-03-21T15:39:14;16.60;68.40
360;DHT22;168;48.872;9.226;2023-03-21T15:41:55;16.50;68.70
360;DHT22;168;48.872;9.226;2023-03-21T15:44:23;16.40;69.20
360;DHT22;168;48.872;9.226;2023-03-21T15:46:54;16.40;69.00
360;DHT22;168;48.872;9.226;2023-03-21T15:49:25;16.30;69.20
360;DHT22;168;48.872;9.226;2023-03-21T15:52:02;16.20;69.70
360;DHT22;168;48.872;9.226;2023-03-21T15:54:33;16.20;70.20
360;DHT22;168;48.872;9.226;2023-03-21T15:57:04;16.10;70.50
360;DHT22;168;48.872;9.226;2023-03-21T15:59:49;15.90;70.90
360;DHT22;168;48.872;9.226;2023-03-21T16:02:24;15.80;71.90
360;DHT22;168;48.872;9.226;2023-03-21T16:04:58;15.90;71.90
360;DHT22;168;48.872;9.226;2023-03-21T16:07:26;15.90;72.20
360;DHT22;168;48.872;9.226;2023-03-21T16:09:58;16.00;71.30
360;DHT22;168;48.872;9.226;2023-03-21T16:12:26;16.10;71.20
360;DHT22;168;48.872;9.226;2023-03-21T16:14:54;16.20;71.10
360;DHT22;168;48.872;9.226;2023-03-21T16:17:29;16.30;71.60
360;DHT22;168;48.872;9.226;2023-03-21T16:19:58;16.20;71.80
360;DHT22;168;48.872;9.226;2023-03-21T16:22:26;16.10;72.00
360;DHT22;168;48.872;9.226;2023-03-21T16:24:55;16.00;72.40
360;DHT22;168;48.872;9.226;2023-03-21T16:27:22;15.90;72.60
360;DHT22;168;48.872;9.226;2023-03-21T16:29:50;15.80;72.30
360;DHT22;168;48.872;9.226;2023-03-21T16:32:17;15.70;73.80
360;DHT22;168;48.872;9.226;2023-03-21T16:34:47;15.70;75.10
360;DHT22;168;48.872;9.226;2023-03-21T16:37:18;15.70;75.90
360;DHT22;168;48.872;9.226;2023-03-21T16:39:46;15.70;76.00
360;DHT22;168;48.872;9.226;2023-03-21T16:42:14;15.80;76.20
360;DHT22;168;48.872;9.226;2023-03-21T16:44:41;15.80;76.20
360;DHT22;168;48.872;9.226;2023-03-21T16:47:13;15.60;76.30
360;DHT22;168;48.872;9.226;2023-03-21T16:49:42;15.60;76.20
360;DHT22;168;48.872;9.226;2023-03-21T16:52:12;15.50;76.40
360;DHT22;168;48.872;9.226;2023-03-21T16:54:40;15.50;76.00
360;DHT22;168;48.872;9.226;2023-03-21T16:57:18;15.50;76.80
360;DHT22;168;48.872;9.226;2023-03-21T16:59:52;15.50;76.50
360;DHT22;168;48.872;9.226;2023-03-21T17:02:21;15.70;75.30
360;DHT22;168;48.872;9.226;2023-03-21T17:04:55;15.60;75.70
360;DHT22;168;48.872;9.226;2023-03-21T17:07:27;15.50;76.50